DW4743 Rozas ES current weather conditions

sailwx.info

Wind from 031 at 3 knots gusting 6

Air temperature 16.7° C
Dewpoint 16.7° C

Last reported at 2019-Aug-25 22:03 UTC.
Time now 2019-Aug-25 22:38 UTC

Location: N 43°07' W 007°28'.
View on Google Maps.

See reports from other nearby stations

  
Tides and Currents Weather Stations Pressure Air Temp Water Temp Dewpoint Dewpoint Depression Visibility Wind Speed Wind Dir Waves Ship Positions
date/time (UTC)wind fromknots sea level pressurealtimeterstation pressurevisibilityair tempwater tempwave heightnotes
2019-Aug-25 22:03 031 3 gusting 6 16.7
2019-Aug-25 21:53 051 5 gusting 8 16.7
2019-Aug-25 21:43 025 4 gusting 5 16.7
2019-Aug-25 21:33 056 4 gusting 6 16.7
2019-Aug-25 21:23 052 5 gusting 6 16.7
2019-Aug-25 21:13 059 4 gusting 7 16.7
2019-Aug-25 20:43 057 8 gusting 11 17.2
2019-Aug-25 20:23 048 3 gusting 6 17.2
2019-Aug-25 20:03 020 4 gusting 10 17.2
2019-Aug-25 19:53 052 7 gusting 12 17.2
2019-Aug-25 19:43 037 6 gusting 11 17.2
2019-Aug-25 19:33 048 7 gusting 10 17.2
2019-Aug-25 19:13 051 10 gusting 14 17.2
2019-Aug-25 18:53 058 10 gusting 13 17.8
2019-Aug-25 18:43 050 8 gusting 17 17.8
2019-Aug-25 18:13 050 8 gusting 18 17.8
2019-Aug-25 18:03 048 10 gusting 15 18.3
2019-Aug-25 17:43 058 10 gusting 14 18.9
2019-Aug-25 17:23 085 8 gusting 18 19.4
2019-Aug-25 17:13 077 14 gusting 18 19.4
2019-Aug-25 17:03 073 7 gusting 13 20.0
2019-Aug-25 16:53 067 7 gusting 13 20.0
2019-Aug-25 16:43 062 11 gusting 14 20.0
2019-Aug-25 16:33 045 4 gusting 10 20.0
2019-Aug-25 16:23 042 7 gusting 13 19.4
2019-Aug-25 16:13 026 7 gusting 11 19.4
2019-Aug-25 15:43 010 5 gusting 8 19.4
2019-Aug-25 15:33 005 6 gusting 8 20.0
2019-Aug-25 15:13 061 3 gusting 6 19.4
2019-Aug-25 14:23 043 2 gusting 8 19.4
2019-Aug-25 14:13 069 6 gusting 8 19.4
2019-Aug-25 14:03 323 5 gusting 10 19.4
2019-Aug-25 13:53 348 6 gusting 10 19.4
2019-Aug-25 13:43 077 4 gusting 6 18.9
2019-Aug-25 13:33 098 4 gusting 6 18.9
2019-Aug-25 13:23 098 3 gusting 5 18.9
2019-Aug-25 13:13 040 4 gusting 10 18.3
2019-Aug-25 13:03 037 6 gusting 10 18.9
2019-Aug-25 12:53 018 6 gusting 8 18.3
2019-Aug-25 12:43 304 2 gusting 6 17.8
2019-Aug-25 12:23 306 4 gusting 6 17.2
2019-Aug-25 12:03 287 4 gusting 6 17.2
2019-Aug-25 11:53 275 5 gusting 8 17.2
2019-Aug-25 11:43 313 5 gusting 6 16.7
2019-Aug-25 11:33 275 4 gusting 6 16.7
2019-Aug-25 11:23 313 4 gusting 10 17.2
2019-Aug-25 11:13 238 8 gusting 11 16.7
2019-Aug-25 11:03 291 6 gusting 8 16.7
2019-Aug-25 10:33 016 6 gusting 6 16.7
2019-Aug-25 10:13 044 4 gusting 6 16.7
2019-Aug-25 09:43 136 3 gusting 5 16.1
2019-Aug-25 09:33 136 2 gusting 6 16.1
2019-Aug-25 09:23 092 2 gusting 8 16.1
2019-Aug-25 09:13 027 5 gusting 10 16.1
2019-Aug-25 09:03 038 6 gusting 10 15.6
2019-Aug-25 08:43 031 4 gusting 11 15.6
2019-Aug-25 08:33 066 9 gusting 11 15.6
2019-Aug-25 08:23 036 8 gusting 11 15.6
2019-Aug-25 08:13 010 4 gusting 13 15.6
2019-Aug-25 07:53 005 5 gusting 10 15.6
2019-Aug-25 07:43 012 6 gusting 10 15.6
2019-Aug-25 07:33 039 6 gusting 12 15.6
2019-Aug-25 07:23 020 6 gusting 14 15.6
2019-Aug-25 07:13 080 10 gusting 15 15.6
2019-Aug-25 07:03 030 6 gusting 8 15.6
2019-Aug-25 06:53 034 5 gusting 10 15.6
2019-Aug-25 06:43 033 5 gusting 12 15.6
2019-Aug-25 06:23 15.6
2019-Aug-25 06:13 013 5 gusting 7 15.0
2019-Aug-25 06:03 032 6 gusting 10 15.0
2019-Aug-25 05:53 022 6 gusting 10 15.6
2019-Aug-25 05:43 028 1 gusting 4 15.6
2019-Aug-25 05:33 058 2 gusting 6 15.6
2019-Aug-25 05:23 032 0 gusting 10 15.6
2019-Aug-25 05:13 245 7 gusting 12 15.6
2019-Aug-25 05:03 028 8 gusting 11 15.6
2019-Aug-25 04:53 075 0 gusting 4 15.6
2019-Aug-25 04:43 057 4 gusting 10 15.6
2019-Aug-25 04:33 055 6 gusting 11 15.6
2019-Aug-25 04:23 073 3 gusting 8 15.6
2019-Aug-25 04:03 028 6 gusting 7 15.6
2019-Aug-25 03:33 040 4 gusting 6 15.6
2019-Aug-25 03:13 042 4 gusting 6 15.6
2019-Aug-25 03:03 024 4 gusting 6 15.6
2019-Aug-25 02:53 049 4 gusting 6 15.6
2019-Aug-25 02:43 069 5 gusting 6 15.6
2019-Aug-25 02:33 063 5 gusting 8 15.6
2019-Aug-25 02:23 036 5 gusting 8 15.6
2019-Aug-25 02:13 038 6 gusting 8 15.6
2019-Aug-25 02:03 022 6 gusting 10 15.6
2019-Aug-25 01:43 017 6 gusting 7 15.6
2019-Aug-25 01:33 029 6 gusting 8 15.6
2019-Aug-25 01:23 025 6 gusting 10 15.0
2019-Aug-25 01:13 059 4 gusting 8 15.0
2019-Aug-25 00:53 031 6 gusting 11 15.6
2019-Aug-25 00:43 036 6 gusting 10 15.0
2019-Aug-25 00:33 054 5 gusting 10 15.0
2019-Aug-25 00:23 038 6 gusting 10 15.0
2019-Aug-24 23:33 016 7 gusting 11 15.0
2019-Aug-24 23:13 039 7 gusting 10 15.0
2019-Aug-24 22:53 14.4
2019-Aug-24 22:13 015 4 gusting 6 13.9
2019-Aug-24 22:03 028 2 gusting 4 13.9
2019-Aug-24 21:33 038 3 gusting 5 13.9
2019-Aug-24 21:13 030 1 gusting 4 14.4
2019-Aug-24 20:53 039 4 gusting 5 15.0
2019-Aug-24 20:43 040 4 gusting 6 15.0
2019-Aug-24 20:13 018 4 gusting 6 16.1
2019-Aug-24 20:03 027 4 gusting 7 16.1
2019-Aug-24 19:53 025 5 gusting 7 16.7
2019-Aug-24 19:33 025 4 gusting 10 16.7
2019-Aug-24 19:13 022 6 gusting 10 17.8
2019-Aug-24 18:53 014 7 gusting 11 18.9
2019-Aug-24 18:43 030 8 gusting 12 20.0
2019-Aug-24 18:13 047 6 gusting 13 21.1
2019-Aug-24 18:03 051 10 gusting 14 21.7
2019-Aug-24 17:53 050 11 gusting 14 22.8
2019-Aug-24 17:33 025 6 gusting 12 23.9
2019-Aug-24 17:13 054 7 gusting 13 24.4
2019-Aug-24 17:03 049 10 gusting 13 25.0
2019-Aug-24 16:53 044 8 gusting 13 25.6
2019-Aug-24 16:33 041 10 gusting 14 26.1
2019-Aug-24 16:23 045 10 gusting 13 26.7
2019-Aug-24 16:03 342 6 gusting 10 28.9
2019-Aug-24 15:53 005 7 gusting 11 28.9
2019-Aug-24 15:43 013 8 gusting 12 28.9
2019-Aug-24 15:23 306 7 gusting 12 29.4
2019-Aug-24 15:13 334 7 gusting 11 29.4
2019-Aug-24 15:03 345 7 gusting 11 29.4
2019-Aug-24 14:53 336 4 gusting 11 29.4
2019-Aug-24 14:43 314 6 gusting 10 29.4
2019-Aug-24 14:33 322 6 gusting 11 29.4
2019-Aug-24 14:23 015 2 gusting 10 28.9
2019-Aug-24 14:13 314 6 gusting 10 29.4
2019-Aug-24 14:03 358 5 gusting 10 29.4
2019-Aug-24 13:53 003 4 gusting 7 28.9
2019-Aug-24 13:43 313 5 gusting 10 28.9
2019-Aug-24 13:33 316 6 gusting 10 28.9
2019-Aug-24 13:23 019 4 gusting 10 28.9
2019-Aug-24 13:13 294 7 gusting 10 28.3
2019-Aug-24 13:03 27.8
2019-Aug-24 12:53 315 6 gusting 8 27.2
2019-Aug-24 12:33 303 5 gusting 10 26.7
2019-Aug-24 12:23 294 3 gusting 10 26.1
2019-Aug-24 12:03 305 5 gusting 6 25.6
2019-Aug-24 11:53 252 4 gusting 5 25.0
2019-Aug-24 11:33 005 5 gusting 8 23.9
2019-Aug-24 11:03 350 4 gusting 6 22.2
2019-Aug-24 10:53 21.1
2019-Aug-24 10:43 352 1 gusting 4 20.6
2019-Aug-24 10:33 324 2 gusting 6 20.6
2019-Aug-24 10:23 315 0 gusting 2 19.4
2019-Aug-24 10:13 304 1 gusting 4 18.9
2019-Aug-24 10:03 348 2 gusting 6 18.3
2019-Aug-24 09:53 292 1 gusting 6 17.8
2019-Aug-24 09:43 336 3 gusting 6 17.8
2019-Aug-24 09:33 321 4 gusting 6 16.7
2019-Aug-24 09:13 291 6 gusting 8 16.7
2019-Aug-24 09:03 303 6 gusting 8 16.7
2019-Aug-24 08:43 298 3 gusting 5 16.7
2019-Aug-24 08:33 306 4 gusting 6 16.1
2019-Aug-24 08:23 294 2 gusting 6 16.1
2019-Aug-24 08:13 344 2 gusting 6 16.1
2019-Aug-24 08:03 312 2 gusting 4 15.6
2019-Aug-24 07:53 318 1 gusting 2 15.6
2019-Aug-24 07:43 307 2 gusting 4 15.0
2019-Aug-24 07:23 293 2 gusting 4 14.4
2019-Aug-24 07:13 307 1 gusting 2 14.4
2019-Aug-24 07:03 290 0 gusting 2 14.4
2019-Aug-24 06:53 175 13.9
2019-Aug-24 06:43 175 0 gusting 2 13.3
2019-Aug-24 06:23 175 0 gusting 1 11.7
2019-Aug-24 06:03 175 0 gusting 1 11.1
2019-Aug-24 05:33 175 0 gusting 1 11.7
2019-Aug-24 05:13 175 11.7
2019-Aug-24 05:03 175 0 gusting 1 11.7
2019-Aug-24 04:53 175 11.7
2019-Aug-24 04:43 175 0 gusting 2 11.7
2019-Aug-24 04:13 263 1 gusting 2 11.7
2019-Aug-24 04:03 289 0 gusting 2 11.7
2019-Aug-24 03:53 291 1 gusting 2 11.7
2019-Aug-24 03:43 304 11.7
2019-Aug-24 03:33 304 11.7
2019-Aug-24 03:23 304 12.2
2019-Aug-24 03:13 304 12.2
2019-Aug-24 03:03 304 0 gusting 1 12.2
2019-Aug-24 02:53 304 0 gusting 1 12.2
2019-Aug-24 02:43 304 0 gusting 2 12.8
2019-Aug-24 02:13 236 12.8
2019-Aug-24 01:53 148 1 gusting 4 13.3
2019-Aug-24 01:43 142 4 gusting 4 13.3
2019-Aug-24 01:33 144 4 gusting 4 13.3
2019-Aug-24 01:13 142 0 gusting 1 13.9
2019-Aug-24 00:23 142 0 gusting 1 14.4
2019-Aug-24 00:13 142 14.4
2019-Aug-24 00:03 142 14.4
2019-Aug-23 23:53 142 15.0
2019-Aug-23 23:43 142 0 gusting 4 15.6
2019-Aug-23 23:23 144 4 gusting 5 15.6
2019-Aug-23 23:13 140 4 gusting 5 15.6
2019-Aug-23 22:43 138 4 gusting 5 16.1
2019-Aug-23 22:33 142 2 gusting 4 16.1